Bin Ghashir, Libya
Current Conditions -  °F | °C
As of 5:00 AM on Tuesday 23 Dec 2014 (Local Time) from DTTJ Reporting Station
Few Clouds Few Clouds  
Wind Chill: 59°   Ceiling: Unl
Heat Index: 59°   Visibility: 4mi
Dew Point: 55°   Wind: 6mph
Humidity: 88%   Direction: 10°N
Pressure: 30.45"   Gusts: NA
Location:  32.68°N, 13.18°E
Report Text: DTTJ 230200Z 01005KT 7000 FEW016 15/13 Q1031
Loading
Personal Weather Stations






























Interactive Weather Map New forecast layout! Learn more

10-Day Weather Forecast

Advertisements
Track Severe Weather on mobile